Time;durP1;ratioP1;P1;durP2;ratioP2;P2;SDS_P1;SDS_P2;PMS_P1;PMS_P2;Temp;Humidity;BMP_temperature;BMP_pressure;BME280_temperature;BME280_humidity;BME280_pressure;Samples;Min_cycle;Max_cycle;Signal;HPM_P1;HPM_P2
2022/05/21 00:00:21;;;;;;;8.50;6.03;;;;;;;22.15;100.00;99308.19;5032367;28;20578;-76
2022/05/21 00:02:50;;;;;;;11.32;5.68;;;;;;;22.00;100.00;99321.31;5032201;28;20202;-76
2022/05/21 00:05:17;;;;;;;6.35;5.43;;;;;;;21.89;100.00;99326.91;5032565;28;20252;-76
2022/05/21 00:07:45;;;;;;;6.50;5.00;;;;;;;21.78;100.00;99355.50;5014805;28;20638;-77
2022/05/21 00:10:13;;;;;;;6.90;5.50;;;;;;;21.78;100.00;99373.78;5032760;28;20183;-76
2022/05/21 00:12:40;;;;;;;7.60;5.60;;;;;;;21.71;100.00;99401.41;5031448;28;20186;-76
2022/05/21 00:15:08;;;;;;;6.50;5.90;;;;;;;21.52;100.00;99409.63;5031484;28;20190;-77
2022/05/21 00:17:35;;;;;;;6.00;5.40;;;;;;;21.39;100.00;99440.34;5031112;28;20652;-77
2022/05/21 00:20:02;;;;;;;9.07;5.87;;;;;;;21.30;100.00;99438.59;5032459;28;20227;-76
2022/05/21 00:22:29;;;;;;;6.20;5.60;;;;;;;21.17;100.00;99448.31;5032619;28;20186;-76
2022/05/21 00:24:57;;;;;;;6.20;5.37;;;;;;;21.18;100.00;99432.78;5032285;28;20303;-76
2022/05/21 00:27:24;;;;;;;6.10;5.70;;;;;;;21.17;100.00;99431.97;5032388;28;20722;-76
2022/05/21 00:29:50;;;;;;;6.00;5.50;;;;;;;21.09;100.00;99436.09;5030920;28;20239;-76
2022/05/21 00:32:17;;;;;;;6.90;6.00;;;;;;;21.01;100.00;99436.75;5032644;28;20243;-77
2022/05/21 00:34:44;;;;;;;7.90;5.87;;;;;;;21.03;100.00;99445.47;5032344;28;20189;-77
2022/05/21 00:37:11;;;;;;;6.43;5.80;;;;;;;20.98;100.00;99455.59;5031036;28;20226;-77
2022/05/21 00:39:38;;;;;;;6.57;6.07;;;;;;;20.96;100.00;99464.06;5031870;28;20288;-77
2022/05/21 00:42:06;;;;;;;6.80;6.30;;;;;;;20.90;100.00;99473.38;5032246;28;20190;-77
2022/05/21 00:44:33;;;;;;;6.80;6.10;;;;;;;20.92;100.00;99495.69;5030799;28;20195;-76
2022/05/21 00:47:00;;;;;;;6.50;5.40;;;;;;;20.88;100.00;99513.72;5031010;28;20667;-76
2022/05/21 00:49:32;;;;;;;5.40;4.93;;;;;;;21.01;100.00;99526.63;5032194;28;20658;-78
2022/05/21 00:52:19;;;;;;;5.63;4.90;;;;;;;21.26;100.00;99532.91;5032095;28;20238;-76
2022/05/21 00:55:02;;;;;;;5.80;5.20;;;;;;;21.20;100.00;99513.09;5031727;28;20174;-76
2022/05/21 00:57:41;;;;;;;7.43;4.93;;;;;;;20.89;100.00;99519.97;5030377;28;20226;-76
2022/05/21 01:00:21;;;;;;;6.17;4.90;;;;;;;20.76;100.00;99509.78;5031831;28;20217;-76
2022/05/21 01:02:56;;;;;;;6.37;4.70;;;;;;;20.63;100.00;99470.44;5030351;28;20229;-77
2022/05/21 01:05:26;;;;;;;8.17;4.83;;;;;;;20.58;100.00;99443.28;5032038;28;20189;-78
2022/05/21 01:07:55;;;;;;;4.83;3.87;;;;;;;20.46;100.00;99423.81;5031339;28;20193;-76
2022/05/21 01:10:24;;;;;;;4.40;4.00;;;;;;;20.40;100.00;99387.69;5030423;28;20214;-78
2022/05/21 01:12:53;;;;;;;4.40;4.00;;;;;;;20.28;100.00;99378.28;5013689;28;20245;-79
2022/05/21 01:15:33;;;;;;;4.50;4.10;;;;;;;20.17;100.00;99375.69;5031281;28;20237;-79
2022/05/21 01:18:01;;;;;;;5.83;4.40;;;;;;;20.12;100.00;99402.94;5030027;28;20580;-79
2022/05/21 01:20:39;;;;;;;5.43;4.70;;;;;;;19.96;100.00;99414.25;5031189;28;20287;-78
2022/05/21 01:23:06;;;;;;;4.73;4.20;;;;;;;19.86;100.00;99406.19;5031461;28;20234;-78
2022/05/21 01:25:35;;;;;;;6.70;5.00;;;;;;;19.81;100.00;99408.94;5031149;28;20200;-78
2022/05/21 01:28:03;;;;;;;6.07;4.80;;;;;;;19.74;100.00;99410.06;5030051;28;20230;-79
2022/05/21 01:30:37;;;;;;;5.20;4.70;;;;;;;19.67;100.00;99415.03;5031392;28;20244;-79
2022/05/21 01:33:06;;;;;;;5.97;4.70;;;;;;;19.61;100.00;99415.34;5031167;28;20185;-81
2022/05/21 01:35:33;;;;;;;5.53;4.97;;;;;;;19.54;100.00;99398.56;5031051;28;20913;-78
2022/05/21 01:38:00;;;;;;;6.70;5.13;;;;;;;19.45;100.00;99394.84;5030179;28;20183;-78
2022/05/21 01:40:28;;;;;;;5.97;5.10;;;;;;;19.37;100.00;99398.91;5030733;28;20212;-80
2022/05/21 01:45:40;;;;;;;6.10;5.10;;;;;;;19.30;100.00;99365.84;5029657;28;20212;-78
2022/05/21 01:48:08;;;;;;;7.43;5.30;;;;;;;19.25;100.00;99352.31;5030991;28;20190;-79
2022/05/21 01:50:36;;;;;;;6.13;5.40;;;;;;;19.15;100.00;99357.78;5030436;28;20201;-78
2022/05/21 01:53:03;;;;;;;6.23;5.00;;;;;;;19.13;100.00;99352.63;5030560;28;20247;-78
2022/05/21 01:55:30;;;;;;;5.53;5.00;;;;;;;19.10;100.00;99363.25;5030647;28;20698;-77
2022/05/21 01:57:57;;;;;;;6.40;5.33;;;;;;;19.03;100.00;99362.78;5029058;28;20234;-79
2022/05/21 02:00:23;;;;;;;5.80;5.17;;;;;;;18.98;100.00;99373.66;5030489;28;20688;-78
2022/05/21 02:02:51;;;;;;;6.40;5.00;;;;;;;18.96;100.00;99362.25;5030202;28;20597;-78
2022/05/21 02:05:17;;;;;;;6.30;5.23;;;;;;;18.94;100.00;99350.88;5030598;28;20192;-79
2022/05/21 02:07:44;;;;;;;5.87;5.00;;;;;;;18.91;100.00;99344.91;5029849;28;20185;-79
2022/05/21 02:10:11;;;;;;;5.23;4.70;;;;;;;18.94;100.00;99357.13;5030371;28;20767;-76
2022/05/21 02:12:39;;;;;;;6.10;5.50;;;;;;;18.85;100.00;99354.16;5028865;28;20186;-79
2022/05/21 02:15:07;;;;;;;5.90;5.30;;;;;;;18.87;100.00;99362.03;5030542;28;20925;-77
2022/05/21 02:17:33;;;;;;;6.93;4.97;;;;;;;18.84;100.00;99355.28;5030657;28;20262;-76
2022/05/21 02:20:00;;;;;;;5.80;5.23;;;;;;;18.83;100.00;99347.41;5030041;28;20268;-79
2022/05/21 02:22:28;;;;;;;6.40;5.87;;;;;;;18.80;100.00;99340.63;5030627;28;20188;-75
2022/05/21 02:24:54;;;;;;;7.93;5.53;;;;;;;18.79;100.00;99336.31;5028874;28;20203;-77
2022/05/21 02:27:21;;;;;;;6.37;5.50;;;;;;;18.78;100.00;99336.59;5030566;28;20194;-77
2022/05/21 02:29:48;;;;;;;6.07;5.57;;;;;;;18.79;100.00;99327.34;5029767;28;20190;-79
2022/05/21 02:32:15;;;;;;;6.80;6.20;;;;;;;18.75;100.00;99310.84;5030214;28;20187;-76
2022/05/21 02:34:42;;;;;;;7.70;5.40;;;;;;;18.74;100.00;99322.78;5029785;28;20190;-76
2022/05/21 02:39:55;;;;;;;5.23;4.73;;;;;;;18.59;100.00;99335.59;5029426;28;20210;-78
2022/05/21 02:45:07;;;;;;;6.53;4.70;;;;;;;18.53;100.00;99323.09;5029821;28;20196;-76
2022/05/21 02:47:34;;;;;;;6.43;4.30;;;;;;;18.53;100.00;99309.53;5030394;28;20184;-77
2022/05/21 02:50:01;;;;;;;5.97;4.20;;;;;;;18.52;100.00;99319.59;5012001;28;20227;-77
2022/05/21 02:52:28;;;;;;;5.43;4.17;;;;;;;18.52;100.00;99327.75;5030117;28;20188;-76
2022/05/21 02:54:57;;;;;;;4.57;4.17;;;;;;;18.50;100.00;99324.50;5029895;28;20508;-76
2022/05/21 02:57:24;;;;;;;5.17;4.67;;;;;;;18.52;100.00;99333.16;5028715;28;20236;-78
2022/05/21 02:59:51;;;;;;;4.83;4.40;;;;;;;18.49;100.00;99331.00;5028244;28;20282;-76
2022/05/21 03:02:19;;;;;;;4.67;4.27;;;;;;;18.49;100.00;99348.09;5029380;28;20193;-76
2022/05/21 03:04:46;;;;;;;5.03;4.27;;;;;;;18.43;100.00;99340.22;5029406;28;20549;-76
2022/05/21 03:07:12;;;;;;;5.30;4.23;;;;;;;18.44;100.00;99372.50;5028737;28;20194;-76
2022/05/21 03:12:25;;;;;;;5.50;4.27;;;;;;;18.48;100.00;99446.00;5029803;28;20230;-77
2022/05/21 03:14:52;;;;;;;4.77;4.37;;;;;;;18.61;100.00;99496.22;5029333;28;20181;-77
2022/05/21 03:17:19;;;;;;;5.53;4.60;;;;;;;18.72;100.00;99525.75;5029954;28;20181;-76
2022/05/21 03:19:46;;;;;;;7.27;4.73;;;;;;;18.80;100.00;99548.81;5031128;28;20210;-75
2022/05/21 03:22:13;;;;;;;7.40;4.70;;;;;;;18.73;100.00;99532.81;5033938;28;20186;-75
2022/05/21 03:24:39;;;;;;;6.37;5.47;;;;;;;18.74;100.00;99541.78;5033347;28;20202;-75
2022/05/21 03:27:07;;;;;;;6.50;5.00;;;;;;;18.70;100.00;99559.69;5033630;28;20182;-76
2022/05/21 03:29:34;;;;;;;8.57;5.17;;;;;;;18.65;100.00;99578.69;5033627;28;20190;-76
2022/05/21 03:32:02;;;;;;;7.43;5.43;;;;;;;18.58;100.00;99583.56;5033863;28;20186;-75
2022/05/21 03:34:28;;;;;;;6.30;5.10;;;;;;;18.59;100.00;99593.34;5033456;28;20179;-75
2022/05/21 03:36:56;;;;;;;8.53;5.23;;;;;;;18.58;100.00;99595.25;5032925;28;20257;-76
2022/05/21 03:39:23;;;;;;;8.53;4.60;;;;;;;18.44;100.00;99523.59;5033234;28;20262;-76
2022/05/21 03:41:50;;;;;;;8.07;4.63;;;;;;;18.35;100.00;99514.38;5031978;28;20190;-77
2022/05/21 03:44:18;;;;;;;7.20;4.13;;;;;;;18.24;100.00;99512.78;5033610;28;20652;-76
2022/05/21 03:46:45;;;;;;;5.37;3.80;;;;;;;18.15;100.00;99544.25;5032976;28;20309;-75
2022/05/21 03:49:12;;;;;;;4.63;4.10;;;;;;;18.16;100.00;99562.94;5031843;28;20245;-76
2022/05/21 03:51:39;;;;;;;4.60;4.00;;;;;;;18.11;100.00;99530.41;5033505;28;20187;-77
2022/05/21 03:54:05;;;;;;;5.37;4.03;;;;;;;18.06;100.00;99522.25;5033011;28;20190;-76
2022/05/21 03:56:32;;;;;;;5.93;3.87;;;;;;;18.04;100.00;99508.19;5033200;28;20176;-77
2022/05/21 03:58:59;;;;;;;4.63;3.80;;;;;;;18.03;100.00;99488.38;5032485;28;20230;-76
2022/05/21 04:01:26;;;;;;;5.73;3.40;;;;;;;18.01;100.00;99474.28;5032807;28;20277;-76
2022/05/21 04:03:54;;;;;;;11.27;3.80;;;;;;;18.00;100.00;99464.53;5032611;28;20986;-77
2022/05/21 04:06:22;;;;;;;5.20;3.93;;;;;;;18.04;100.00;99472.94;5032892;28;20187;-77
2022/05/21 04:08:52;;;;;;;8.57;4.00;;;;;;;18.04;100.00;99457.50;5032337;28;20186;-77
2022/05/21 04:11:19;;;;;;;4.77;3.90;;;;;;;18.01;100.00;99438.22;5032618;28;20171;-77
2022/05/21 04:13:46;;;;;;;5.43;3.80;;;;;;;17.97;100.00;99440.69;5032507;28;20186;-76
2022/05/21 04:16:12;;;;;;;4.50;4.03;;;;;;;18.00;100.00;99450.19;5032810;28;20241;-77
2022/05/21 04:18:39;;;;;;;4.30;3.80;;;;;;;18.00;100.00;99439.34;5032355;28;20182;-76
2022/05/21 04:21:06;;;;;;;5.23;3.77;;;;;;;17.99;100.00;99432.28;5032923;28;20276;-77
2022/05/21 04:23:33;;;;;;;4.60;3.63;;;;;;;18.00;100.00;99429.31;5032839;28;20191;-77
2022/05/21 04:26:00;;;;;;;5.13;4.03;;;;;;;18.07;100.00;99445.28;5031183;28;20207;-79
2022/05/21 04:28:29;;;;;;;4.43;3.83;;;;;;;18.15;100.00;99447.44;5032493;28;20194;-75
2022/05/21 04:30:56;;;;;;;4.67;3.40;;;;;;;18.27;100.00;99442.53;5031690;28;20668;-76
2022/05/21 04:33:22;;;;;;;4.40;3.00;;;;;;;18.41;100.00;99437.38;5032208;28;20253;-75
2022/05/21 04:38:35;;;;;;;4.97;3.53;;;;;;;18.40;100.00;99431.13;5032099;28;20183;-75
2022/05/21 04:41:02;;;;;;;4.67;3.30;;;;;;;18.36;100.00;99442.78;5031935;28;20261;-75
2022/05/21 04:43:29;;;;;;;4.40;3.60;;;;;;;18.45;100.00;99433.81;5032084;28;20665;-75
2022/05/21 04:46:00;;;;;;;5.17;3.40;;;;;;;18.52;100.00;99435.44;5031501;28;20222;-76
2022/05/21 04:48:27;;;;;;;5.00;3.40;;;;;;;18.66;100.00;99453.59;5030630;28;20187;-77
2022/05/21 04:50:58;;;;;;;4.63;3.30;;;;;;;18.73;100.00;99453.28;5031725;28;20547;-76
2022/05/21 04:53:26;;;;;;;4.20;3.13;;;;;;;18.79;100.00;99460.34;5032290;28;20217;-76
2022/05/21 04:55:53;;;;;;;3.93;3.03;;;;;;;18.92;100.00;99470.59;5030668;28;20186;-75
2022/05/21 04:58:20;;;;;;;4.40;3.27;;;;;;;19.04;100.00;99473.78;5031638;28;20224;-77
2022/05/21 05:00:47;;;;;;;6.53;3.60;;;;;;;19.15;100.00;99493.56;5031209;28;20211;-76
2022/05/21 05:03:15;;;;;;;5.43;3.53;;;;;;;19.30;100.00;99491.59;5032095;28;20562;-76
2022/05/21 05:05:43;;;;;;;5.27;3.47;;;;;;;19.44;100.00;99502.69;5030187;28;20614;-76
2022/05/21 05:08:11;;;;;;;4.60;3.50;;;;;;;19.62;100.00;99501.22;5030308;28;20198;-76
2022/05/21 05:10:37;;;;;;;4.20;3.40;;;;;;;19.58;100.00;99498.25;5031471;28;20195;-76
2022/05/21 05:13:05;;;;;;;5.97;3.50;;;;;;;19.70;100.00;99515.03;5031602;28;20193;-75
2022/05/21 05:15:33;;;;;;;5.90;3.57;;;;;;;19.84;100.00;99519.81;5031486;28;20211;-76
2022/05/21 05:18:01;;;;;;;3.80;3.40;;;;;;;19.94;100.00;99512.41;5031564;28;20261;-76
2022/05/21 05:20:29;;;;;;;4.00;3.40;;;;;;;19.95;100.00;99516.75;5030036;28;20420;-75
2022/05/21 05:22:57;;;;;;;4.00;3.30;;;;;;;20.06;100.00;99501.97;5031217;28;20187;-75
2022/05/21 05:25:24;;;;;;;4.03;2.80;;;;;;;20.30;100.00;99496.63;5031493;28;20258;-76
2022/05/21 05:27:51;;;;;;;2.93;2.63;;;;;;;20.46;100.00;99500.03;5031478;28;20224;-75
2022/05/21 05:30:20;;;;;;;4.00;3.20;;;;;;;20.67;100.00;99504.13;5031128;28;20250;-76
2022/05/21 05:32:47;;;;;;;4.37;2.97;;;;;;;20.81;100.00;99499.63;5031375;28;20251;-76
2022/05/21 05:35:15;;;;;;;3.33;3.03;;;;;;;20.97;100.00;99503.81;5029383;28;20247;-76
2022/05/21 05:37:45;;;;;;;3.30;3.00;;;;;;;21.10;100.00;99505.00;5029985;28;20714;-76
2022/05/21 05:40:17;;;;;;;4.47;3.27;;;;;;;21.28;100.00;99506.16;5030799;28;20210;-76
2022/05/21 05:42:44;;;;;;;4.60;3.00;;;;;;;21.49;100.00;99502.09;5031506;28;20716;-76
2022/05/21 05:45:13;;;;;;;3.33;3.03;;;;;;;21.61;100.00;99499.72;5031338;28;20672;-75
2022/05/21 05:47:40;;;;;;;4.70;3.17;;;;;;;21.83;100.00;99507.31;5028340;28;20191;-77
2022/05/21 05:50:07;;;;;;;3.47;3.13;;;;;;;22.00;100.00;99493.97;5029952;28;20746;-76
2022/05/21 05:52:34;;;;;;;4.90;3.07;;;;;;;22.24;100.00;99499.31;5029980;28;20240;-77
2022/05/21 05:55:02;;;;;;;4.37;3.13;;;;;;;22.40;100.00;99493.25;5045352;28;20205;-76
2022/05/21 05:57:28;;;;;;;4.80;3.50;;;;;;;22.62;100.00;99489.06;5030638;28;20286;-75
2022/05/21 05:59:56;;;;;;;3.53;3.23;;;;;;;22.72;100.00;99486.97;5030153;28;20228;-76
2022/05/21 06:05:16;;;;;;;5.50;2.93;;;;;;;23.08;100.00;99487.06;5030542;28;20632;-77
2022/05/21 06:07:53;;;;;;;4.03;3.17;;;;;;;23.48;100.00;99482.66;5029400;28;20188;-76
2022/05/21 06:10:24;;;;;;;5.00;2.97;;;;;;;23.77;100.00;99486.94;5045788;28;20247;-77
2022/05/21 06:12:51;;;;;;;3.53;3.20;;;;;;;23.79;100.00;99488.25;5030375;28;20224;-77
2022/05/21 06:15:18;;;;;;;3.60;3.30;;;;;;;24.01;100.00;99493.72;5028604;28;20503;-76
2022/05/21 06:17:45;;;;;;;4.40;3.40;;;;;;;24.19;100.00;99488.41;5028280;28;20346;-77
2022/05/21 06:20:14;;;;;;;3.70;2.95;;;;;;;24.15;100.00;99488.19;5027942;28;20268;-77
2022/05/21 06:22:44;;;;;;;4.78;3.22;;;;;;;24.00;100.00;99488.56;5045121;28;20179;-77
2022/05/21 06:25:17;;;;;;;5.93;3.00;;;;;;;24.22;100.00;99494.06;5030379;28;20214;-77
2022/05/21 06:27:48;;;;;;;5.93;3.30;;;;;;;24.25;100.00;99498.91;5028995;28;20179;-77
2022/05/21 06:30:16;;;;;;;4.80;3.05;;;;;;;24.16;100.00;99483.53;5029141;28;20639;-76
2022/05/21 06:32:43;;;;;;;4.47;2.80;;;;;;;23.95;100.00;99494.16;5029208;28;20251;-77
2022/05/21 06:35:11;;;;;;;4.72;3.10;;;;;;;23.96;100.00;99495.78;5030028;28;20649;-77
2022/05/21 06:37:39;;;;;;;3.97;2.88;;;;;;;23.73;100.00;99505.09;5023287;28;20191;-76
2022/05/21 06:40:09;;;;;;;5.97;3.15;;;;;;;23.78;100.00;99505.78;5009992;28;20207;-76
2022/05/21 06:42:36;;;;;;;4.18;2.90;;;;;;;23.93;100.00;99501.88;5009246;28;20983;-78
2022/05/21 06:45:04;;;;;;;4.25;3.08;;;;;;;24.03;100.00;99507.91;5028771;28;20197;-76
2022/05/21 06:47:31;;;;;;;4.17;3.03;;;;;;;23.74;100.00;99510.25;5029096;28;20657;-76
2022/05/21 06:49:59;;;;;;;3.60;3.10;;;;;;;24.00;100.00;99504.97;5029549;28;20190;-76
2022/05/21 06:52:27;;;;;;;6.78;3.40;;;;;;;24.11;100.00;99512.66;5028671;28;20229;-77
2022/05/21 06:54:54;;;;;;;4.50;2.90;;;;;;;24.11;100.00;99509.09;5029427;28;20190;-77
2022/05/21 06:57:26;;;;;;;3.58;3.20;;;;;;;24.32;100.00;99514.88;5029663;28;20221;-76
2022/05/21 06:59:53;;;;;;;4.90;3.20;;;;;;;24.44;100.00;99515.13;5029401;28;20607;-77
2022/05/21 07:02:19;;;;;;;4.25;2.78;;;;;;;24.37;100.00;99531.19;5027907;28;20252;-77
2022/05/21 07:07:32;;;;;;;3.20;2.85;;;;;;;24.50;100.00;99533.84;5029194;28;20580;-77
2022/05/21 07:10:01;;;;;;;4.03;3.25;;;;;;;24.71;100.00;99533.31;5029129;28;20654;-77
2022/05/21 07:12:28;;;;;;;4.00;3.13;;;;;;;24.46;100.00;99530.13;5029674;28;20183;-79
2022/05/21 07:14:55;;;;;;;4.85;3.05;;;;;;;24.43;100.00;99540.91;5029120;28;20574;-77
2022/05/21 07:17:21;;;;;;;4.35;2.92;;;;;;;24.86;100.00;99547.44;5027982;28;20190;-77
2022/05/21 07:19:48;;;;;;;3.20;2.90;;;;;;;25.00;100.00;99541.88;5028682;28;20210;-76
2022/05/21 07:22:16;;;;;;;4.68;3.13;;;;;;;25.00;100.00;99547.34;5029430;28;20265;-76
2022/05/21 07:24:43;;;;;;;4.00;2.92;;;;;;;25.10;98.85;99543.50;5028781;28;20565;-78
2022/05/21 07:27:15;;;;;;;3.00;2.70;;;;;;;25.07;98.92;99533.97;5029716;28;20259;-76
2022/05/21 07:29:44;;;;;;;3.13;2.83;;;;;;;25.01;98.94;99551.69;5029048;28;20182;-76
2022/05/21 07:32:22;;;;;;;4.20;3.00;;;;;;;24.91;99.39;99543.75;5029374;28;20191;-75
2022/05/21 07:34:56;;;;;;;3.45;2.90;;;;;;;25.12;95.64;99557.69;5028917;28;20190;-77
2022/05/21 07:37:22;;;;;;;4.35;2.85;;;;;;;25.02;94.97;99545.09;5028846;28;20563;-77
2022/05/21 07:39:49;;;;;;;4.47;3.05;;;;;;;25.08;99.29;99546.56;5028782;28;20654;-76
2022/05/21 07:42:16;;;;;;;3.50;2.97;;;;;;;24.91;93.43;99543.75;5043952;28;20264;-76
2022/05/21 07:44:43;;;;;;;6.50;3.33;;;;;;;24.99;94.55;99546.53;5028729;28;20256;-76
2022/05/21 07:47:10;;;;;;;3.67;3.38;;;;;;;24.88;97.44;99541.63;5029305;28;20191;-77
2022/05/21 07:49:37;;;;;;;4.88;3.50;;;;;;;25.03;100.00;99545.91;5043980;28;20198;-76
2022/05/21 07:52:04;;;;;;;4.57;3.70;;;;;;;25.03;100.00;99535.75;5029207;28;20191;-77
2022/05/21 07:54:31;;;;;;;5.68;3.88;;;;;;;24.98;100.00;99544.91;5029302;28;20253;-77
2022/05/21 07:57:01;;;;;;;3.83;3.53;;;;;;;24.81;100.00;99527.56;5028953;28;20260;-76
2022/05/21 07:59:28;;;;;;;4.60;4.00;;;;;;;24.70;100.00;99540.72;5029155;28;20179;-77
2022/05/21 08:01:55;;;;;;;4.93;4.07;;;;;;;24.71;100.00;99538.78;5043616;28;20208;-76
2022/05/21 08:04:21;;;;;;;4.80;3.53;;;;;;;24.56;100.00;99543.56;5029062;28;20245;-77
2022/05/21 08:06:48;;;;;;;4.32;3.72;;;;;;;24.29;100.00;99551.91;5032214;28;20209;-76
2022/05/21 08:09:21;;;;;;;5.45;4.72;;;;;;;24.40;100.00;99549.75;5032665;28;20658;-76
2022/05/21 08:11:49;;;;;;;4.93;3.67;;;;;;;24.42;99.21;99547.47;5032341;28;20202;-75
2022/05/21 08:14:16;;;;;;;3.75;3.45;;;;;;;24.36;100.00;99546.00;5032638;28;20253;-77
2022/05/21 08:16:43;;;;;;;3.75;3.45;;;;;;;24.27;99.24;99548.69;5032366;28;20213;-77
2022/05/21 08:19:12;;;;;;;3.83;3.53;;;;;;;24.32;99.94;99547.75;5032016;28;20217;-77
2022/05/21 08:21:39;;;;;;;6.25;5.65;;;;;;;24.39;100.00;99545.38;5032058;28;20225;-76
2022/05/21 08:27:02;;;;;;;4.78;3.55;;;;;;;24.68;100.00;99545.72;5032315;28;20248;-77
2022/05/21 08:29:34;;;;;;;6.35;5.60;;;;;;;24.84;98.71;99535.94;5032221;28;20175;-77
2022/05/21 08:32:03;;;;;;;5.03;4.13;;;;;;;25.22;98.38;99551.94;5032066;28;20200;-76
2022/05/21 08:34:30;;;;;;;4.93;3.70;;;;;;;25.60;89.61;99547.53;5031639;28;20253;-77
2022/05/21 08:36:57;;;;;;;3.90;3.47;;;;;;;25.68;86.36;99551.41;5032007;28;20183;-77
2022/05/21 08:39:24;;;;;;;3.95;3.20;;;;;;;25.55;89.55;99550.44;5031757;28;20189;-77
2022/05/21 08:41:58;;;;;;;4.68;3.30;;;;;;;25.48;83.61;99538.25;5031911;28;20198;-76
2022/05/21 08:44:38;;;;;;;4.72;3.40;;;;;;;25.16;81.55;99531.25;5047364;28;20171;-76
2022/05/21 08:47:30;;;;;;;4.40;3.30;;;;;;;25.23;83.42;99554.38;5044087;28;20190;-76
2022/05/21 08:50:04;;;;;;;3.63;3.28;;;;;;;25.22;81.07;99552.75;5042646;28;20190;-76
2022/05/21 08:52:44;;;;;;;3.70;3.40;;;;;;;25.03;85.52;99554.94;5026695;28;20219;-77
2022/05/21 08:55:18;;;;;;;3.97;3.05;;;;;;;24.96;83.06;99551.84;5023654;28;20243;-77
2022/05/21 08:57:47;;;;;;;5.13;3.30;;;;;;;25.02;84.48;99547.00;5043450;28;20233;-77
2022/05/21 09:00:20;;;;;;;3.63;3.00;;;;;;;25.01;81.63;99548.94;5043742;28;20248;-76
2022/05/21 09:02:47;;;;;;;5.75;3.30;;;;;;;25.14;81.93;99536.28;5011521;28;20259;-77
2022/05/21 09:05:16;;;;;;;4.55;3.63;;;;;;;25.24;85.12;99527.75;5010741;28;20185;-77
2022/05/21 09:07:49;;;;;;;4.13;3.40;;;;;;;25.51;84.89;99532.97;5011840;28;20221;-76
2022/05/21 09:10:49;;;;;;;4.75;3.00;;;;;;;25.60;78.03;99530.25;5028287;28;20193;-76
2022/05/21 09:13:28;;;;;;;4.30;3.00;;;;;;;25.87;72.68;99546.44;5030825;28;20241;-78
2022/05/21 09:18:41;;;;;;;3.10;2.45;;;;;;;25.51;66.28;99548.63;5031227;28;20168;-76
2022/05/21 09:21:15;;;;;;;3.13;2.85;;;;;;;25.67;64.87;99538.81;5031470;28;20256;-76
2022/05/21 09:23:53;;;;;;;4.70;2.58;;;;;;;26.10;65.49;99547.06;5046252;28;20206;-77
2022/05/21 09:26:26;;;;;;;2.45;2.25;;;;;;;26.42;63.05;99543.00;5028145;28;20619;-77
2022/05/21 09:29:12;;;;;;;3.53;2.20;;;;;;;26.88;55.17;99545.81;5030979;28;20222;-76
2022/05/21 09:31:38;;;;;;;3.20;2.40;;;;;;;27.02;53.93;99537.34;5031049;28;20254;-77
2022/05/21 09:34:30;;;;;;;2.70;2.50;;;;;;;26.92;57.09;99541.28;5031624;28;20193;-78
2022/05/21 09:36:58;;;;;;;2.50;2.30;;;;;;;26.89;58.61;99544.69;5046020;28;20240;-77
2022/05/21 09:39:30;;;;;;;5.72;2.95;;;;;;;26.96;59.82;99547.75;5031049;28;20260;-76
2022/05/21 09:45:23;;;;;;;6.35;2.60;;;;;;;27.10;57.42;99542.03;5043651;28;20200;-76
2022/05/21 09:47:54;;;;;;;15.50;4.22;;;;;;;26.84;54.16;99549.53;5030825;28;20582;-77
2022/05/21 09:50:26;;;;;;;5.63;2.75;;;;;;;26.99;53.33;99547.06;5029451;28;20201;-76
2022/05/21 09:52:53;;;;;;;2.75;2.22;;;;;;;26.86;54.01;99528.06;5030376;28;20186;-77
2022/05/21 09:55:24;;;;;;;3.72;2.28;;;;;;;26.89;57.77;99525.44;5045845;28;20610;-77
2022/05/21 09:58:07;;;;;;;2.42;2.20;;;;;;;26.96;56.84;99531.25;5030141;28;20704;-78
2022/05/21 10:00:36;;;;;;;2.35;2.00;;;;;;;26.78;50.29;99507.69;5045534;28;20236;-77
2022/05/21 10:03:05;;;;;;;2.38;2.17;;;;;;;26.50;51.88;99523.75;5045740;28;20193;-76
2022/05/21 10:05:40;;;;;;;3.50;2.75;;;;;;;26.66;54.66;99521.31;5030330;28;20181;-76
2022/05/21 10:12:04;;;;;;;4.47;4.07;;;;;;;26.58;52.14;99513.91;5028858;28;20214;-78
2022/05/21 10:14:49;;;;;;;5.03;2.40;;;;;;;26.76;50.96;99522.88;5030312;28;20208;-76
2022/05/21 10:17:32;;;;;;;3.92;2.50;;;;;;;26.45;51.09;99512.97;5029343;28;20255;-77
2022/05/21 10:20:13;;;;;;;3.85;1.83;;;;;;;26.44;47.07;99502.31;5029914;28;20175;-76
2022/05/21 10:22:48;;;;;;;2.10;2.00;;;;;;;26.29;50.79;99509.13;5045071;28;20194;-76
2022/05/21 10:25:22;;;;;;;4.50;2.20;;;;;;;26.23;49.73;99513.16;5030367;28;20210;-76
2022/05/21 10:28:08;;;;;;;3.05;2.10;;;;;;;26.58;50.33;99498.22;5043446;28;20186;-77
2022/05/21 10:30:57;;;;;;;12.10;2.97;;;;;;;26.72;51.86;99500.75;5030010;28;20181;-77
2022/05/21 10:33:54;;;;;;;6.72;2.80;;;;;;;26.89;51.21;99506.22;5030106;28;20184;-76
2022/05/21 10:36:48;;;;;;;2.00;1.90;;;;;;;26.66;50.53;99499.31;5030135;28;20696;-77
2022/05/21 10:39:26;;;;;;;2.90;2.00;;;;;;;26.94;46.35;99519.78;5029859;28;20244;-78
2022/05/21 10:42:21;;;;;;;3.65;2.00;;;;;;;26.93;46.59;99509.91;5030029;28;20230;-77
2022/05/21 10:45:13;;;;;;;2.28;2.08;;;;;;;26.91;47.56;99523.19;5030423;28;20648;-77
2022/05/21 10:47:52;;;;;;;2.08;1.85;;;;;;;26.87;43.85;99526.94;5029369;28;20266;-76
2022/05/21 10:50:47;;;;;;;2.58;1.70;;;;;;;27.04;40.73;99510.34;5029257;28;20181;-77
2022/05/21 10:53:30;;;;;;;2.97;1.70;;;;;;;26.88;42.74;99512.03;5045061;28;20170;-77
2022/05/21 10:56:25;;;;;;;2.25;1.70;;;;;;;26.89;44.89;99511.69;5044435;28;20184;-76
2022/05/21 10:59:01;;;;;;;1.92;1.73;;;;;;;26.90;41.96;99507.81;5029728;28;20275;-76
2022/05/21 11:01:34;;;;;;;2.58;1.73;;;;;;;26.89;42.44;99500.72;5044582;28;20255;-76
2022/05/21 11:04:04;;;;;;;3.58;1.75;;;;;;;26.84;40.54;99509.09;5044985;28;20287;-76
2022/05/21 11:06:42;;;;;;;1.67;1.50;;;;;;;26.88;40.14;99482.59;5029756;28;20239;-76
2022/05/21 11:09:25;;;;;;;2.22;1.50;;;;;;;26.69;39.55;99496.72;5028453;28;20193;-77
2022/05/21 11:12:00;;;;;;;1.42;1.30;;;;;;;26.91;41.95;99492.94;5045157;28;20699;-76
2022/05/21 11:15:04;;;;;;;3.13;1.65;;;;;;;27.14;40.84;99487.97;5044570;28;20165;-76
2022/05/21 11:17:44;;;;;;;2.35;1.77;;;;;;;27.09;41.97;99488.97;5029712;28;20193;-77
2022/05/21 11:20:21;;;;;;;2.58;1.40;;;;;;;27.24;42.46;99486.78;5029510;28;20239;-77
2022/05/21 11:22:55;;;;;;;2.08;1.35;;;;;;;27.08;41.53;99503.84;5044690;28;20256;-77
2022/05/21 11:25:36;;;;;;;2.38;1.73;;;;;;;27.10;42.32;99507.09;5037027;28;20216;-77
2022/05/21 11:28:24;;;;;;;1.70;1.52;;;;;;;27.08;41.18;99497.53;5036398;28;20213;-77
2022/05/21 11:30:56;;;;;;;4.00;1.70;;;;;;;26.92;39.91;99513.78;5009549;28;20183;-77
2022/05/21 11:39:02;;;;;;;2.42;1.48;;;;;;;27.12;37.67;99499.28;5042004;28;20608;-77
2022/05/21 11:42:07;;;;;;;3.70;1.40;;;;;;;26.88;35.89;99499.09;5047121;28;20248;-80
2022/05/21 11:45:03;;;;;;;1.98;1.40;;;;;;;27.00;35.99;99492.91;5050378;28;20199;-77
2022/05/21 11:47:39;;;;;;;2.53;2.03;;;;;;;26.44;38.55;99502.31;5032306;28;20239;-77
2022/05/21 11:50:14;;;;;;;6.80;1.80;;;;;;;26.48;40.28;99501.31;5032731;28;20871;-76
2022/05/21 11:52:43;;;;;;;4.30;1.67;;;;;;;26.78;39.23;99499.44;5032957;28;20244;-79
2022/05/21 11:55:19;;;;;;;1.80;1.70;;;;;;;26.85;39.64;99499.72;5048168;28;20240;-76
2022/05/21 11:58:00;;;;;;;3.08;1.67;;;;;;;26.85;40.41;99507.97;5032726;28;20228;-76
2022/05/21 12:00:27;;;;;;;1.75;1.65;;;;;;;27.06;39.35;99508.84;5032499;28;20189;-76
2022/05/21 12:02:54;;;;;;;1.70;1.60;;;;;;;26.96;40.02;99502.94;5032499;28;20281;-75
2022/05/21 12:05:41;;;;;;;2.47;1.80;;;;;;;26.86;39.48;99512.38;5032778;28;20224;-77
2022/05/21 12:08:08;;;;;;;2.55;1.63;;;;;;;26.83;40.31;99501.97;5032154;28;20164;-76
2022/05/21 12:10:54;;;;;;;2.92;1.70;;;;;;;26.95;39.06;99499.38;5031467;28;20188;-80
2022/05/21 12:13:46;;;;;;;2.35;1.83;;;;;;;27.05;38.91;99503.72;5033005;28;20240;-76
2022/05/21 12:16:22;;;;;;;3.65;1.60;;;;;;;26.87;38.36;99502.19;5040286;28;20201;-79
2022/05/21 12:19:03;;;;;;;2.20;1.45;;;;;;;26.84;39.67;99506.34;5032229;28;20185;-76
2022/05/21 12:21:32;;;;;;;2.28;1.70;;;;;;;26.86;38.93;99495.88;5032521;28;20180;-77